Time;durP1;ratioP1;P1;durP2;ratioP2;P2;SDS_P1;SDS_P2;PMS_P1;PMS_P2;Temp;Humidity;BMP_temperature;BMP_pressure;BME280_temperature;BME280_humidity;BME280_pressure;Samples;Min_cycle;Max_cycle;Signal;HPM_P1;HPM_P2
2023/05/13 00:01:49;;;;;;;0.20;0.20;;;14.30;99.90;;;;;;5092995;28;20104;-89
2023/05/13 00:04:14;;;;;;;0.15;0.13;;;14.40;99.90;;;;;;5093482;28;20024;-89
2023/05/13 00:06:40;;;;;;;0.20;0.20;;;14.30;99.90;;;;;;5092683;28;20115;-89
2023/05/13 00:09:06;;;;;;;0.20;0.20;;;14.10;99.90;;;;;;5093807;28;20036;-88
2023/05/13 00:11:31;;;;;;;0.28;0.20;;;14.30;99.90;;;;;;5093741;28;20044;-89
2023/05/13 00:13:57;;;;;;;0.10;0.10;;;14.10;99.90;;;;;;5093564;28;20085;-89
2023/05/13 00:16:26;;;;;;;0.75;0.40;;;14.20;99.90;;;;;;5093616;28;20099;-89
2023/05/13 00:18:53;;;;;;;0.00;0.00;;;14.20;99.90;;;;;;5093417;28;20024;-89
2023/05/13 00:21:18;;;;;;;0.00;0.00;;;14.00;99.90;;;;;;5093659;28;20039;-89
2023/05/13 00:23:44;;;;;;;0.60;0.40;;;13.90;99.90;;;;;;5093452;28;20024;-89
2023/05/13 00:26:09;;;;;;;0.08;0.08;;;14.10;99.90;;;;;;5092692;28;20039;-89
2023/05/13 00:28:35;;;;;;;0.20;0.20;;;14.00;99.90;;;;;;5092229;28;20039;-89
2023/05/13 00:31:01;;;;;;;0.10;0.10;;;14.00;99.90;;;;;;5092680;28;20028;-88
2023/05/13 00:33:26;;;;;;;0.00;0.00;;;14.10;99.90;;;;;;5092696;28;20028;-89
2023/05/13 00:35:52;;;;;;;1.05;0.22;;;14.20;99.90;;;;;;5093943;28;20024;-89
2023/05/13 00:38:18;;;;;;;0.10;0.10;;;14.30;99.90;;;;;;5093558;28;20107;-88
2023/05/13 00:40:44;;;;;;;0.10;0.10;;;14.20;99.90;;;;;;5093204;28;20024;-89
2023/05/13 00:43:10;;;;;;;0.15;0.15;;;14.10;99.90;;;;;;5091720;28;20020;-88
2023/05/13 00:45:37;;;;;;;0.32;0.25;;;14.10;99.90;;;;;;5092372;28;20032;-89
2023/05/13 00:48:05;;;;;;;0.10;0.10;;;14.00;99.90;;;;;;5092510;28;20404;-89
2023/05/13 00:50:32;;;;;;;0.00;0.00;;;14.10;99.90;;;;;;5093476;28;20058;-89
2023/05/13 00:52:58;;;;;;;0.10;0.10;;;14.00;99.90;;;;;;5093265;28;20099;-89
2023/05/13 00:55:24;;;;;;;0.38;0.13;;;14.20;99.90;;;;;;5093105;28;20123;-88
2023/05/13 00:57:50;;;;;;;0.00;0.00;;;14.30;99.90;;;;;;5093019;28;20063;-89
2023/05/13 01:00:18;;;;;;;0.45;0.45;;;14.30;99.90;;;;;;5093023;28;20241;-87
2023/05/13 01:02:59;;;;;;;0.30;0.30;;;14.10;99.90;;;;;;5091826;28;20052;-89
2023/05/13 01:06:00;;;;;;;0.45;0.45;;;13.90;99.90;;;;;;5093183;28;20491;-89
2023/05/13 01:08:45;;;;;;;0.10;0.10;;;13.80;99.90;;;;;;5093073;28;20035;-89
2023/05/13 01:11:16;;;;;;;0.22;0.22;;;13.80;99.90;;;;;;5092921;28;20488;-89
2023/05/13 01:13:45;;;;;;;0.10;0.10;;;13.70;99.90;;;;;;5092139;28;20024;-89
2023/05/13 01:16:40;;;;;;;0.10;0.10;;;13.80;99.90;;;;;;5092545;28;20107;-88
2023/05/13 01:19:30;;;;;;;0.88;0.70;;;14.10;99.90;;;;;;5096068;28;20044;-89
2023/05/13 01:21:55;;;;;;;0.10;0.10;;;14.20;99.90;;;;;;5097311;28;20056;-89
2023/05/13 01:24:21;;;;;;;0.08;0.08;;;14.20;99.90;;;;;;5096844;28;20063;-89
2023/05/13 01:26:48;;;;;;;0.00;0.00;;;14.20;99.90;;;;;;5095647;28;20035;-89
2023/05/13 01:29:14;;;;;;;0.22;0.22;;;14.00;99.90;;;;;;5096641;28;20023;-90
2023/05/13 01:31:41;;;;;;;0.17;0.17;;;13.90;99.90;;;;;;5095398;28;20024;-89
2023/05/13 01:34:09;;;;;;;0.57;0.22;;;13.90;99.90;;;;;;5096773;28;20097;-89
2023/05/13 01:36:36;;;;;;;0.15;0.15;;;13.90;99.90;;;;;;5097082;28;20024;-88
2023/05/13 01:39:02;;;;;;;0.15;0.15;;;13.90;99.90;;;;;;5095573;28;20480;-88
2023/05/13 01:41:28;;;;;;;0.10;0.10;;;13.90;99.90;;;;;;5095782;28;20107;-88
2023/05/13 01:43:53;;;;;;;0.10;0.10;;;14.00;99.90;;;;;;5096623;28;20123;-89
2023/05/13 01:46:19;;;;;;;0.00;0.00;;;13.90;99.90;;;;;;5095495;28;20024;-89
2023/05/13 01:48:45;;;;;;;0.10;0.10;;;13.90;99.90;;;;;;5096426;28;20085;-89
2023/05/13 01:51:11;;;;;;;0.30;0.30;;;14.00;99.90;;;;;;5095825;28;20040;-90
2023/05/13 01:53:36;;;;;;;0.20;0.20;;;14.10;99.90;;;;;;5094806;28;20016;-89
2023/05/13 01:56:02;;;;;;;0.00;0.00;;;14.10;99.90;;;;;;5096092;28;20059;-89
2023/05/13 01:58:28;;;;;;;0.10;0.10;;;14.10;99.90;;;;;;5095248;28;20024;-87
2023/05/13 02:00:53;;;;;;;0.00;0.00;;;14.10;99.90;;;;;;5095352;28;20495;-89
2023/05/13 02:03:19;;;;;;;0.10;0.10;;;13.80;99.90;;;;;;5094785;28;20170;-89
2023/05/13 02:05:46;;;;;;;0.10;0.10;;;13.90;99.90;;;;;;5096106;28;20039;-89
2023/05/13 02:08:12;;;;;;;0.05;0.05;;;14.10;99.90;;;;;;5096265;28;20039;-89
2023/05/13 02:10:38;;;;;;;0.10;0.10;;;14.10;99.90;;;;;;5095210;28;20050;-89
2023/05/13 02:13:03;;;;;;;0.10;0.10;;;14.20;99.90;;;;;;5094695;28;20020;-89
2023/05/13 02:15:29;;;;;;;0.00;0.00;;;13.90;99.90;;;;;;5095548;28;20028;-89
2023/05/13 02:17:55;;;;;;;0.38;0.38;;;13.90;99.90;;;;;;5094730;28;20098;-89
2023/05/13 02:20:20;;;;;;;0.10;0.10;;;13.80;99.90;;;;;;5095511;28;20047;-89
2023/05/13 02:22:46;;;;;;;0.00;0.00;;;13.70;99.90;;;;;;5095722;28;20024;-89
2023/05/13 02:25:12;;;;;;;0.10;0.10;;;13.80;99.90;;;;;;5094633;28;20049;-89
2023/05/13 02:27:37;;;;;;;0.08;0.08;;;13.80;99.90;;;;;;5094964;28;20028;-88
2023/05/13 02:30:03;;;;;;;0.00;0.00;;;13.90;99.90;;;;;;5092850;28;20028;-89
2023/05/13 02:32:29;;;;;;;0.15;0.15;;;13.80;99.90;;;;;;5094974;28;20020;-89
2023/05/13 02:34:54;;;;;;;0.10;0.10;;;13.80;99.90;;;;;;5094455;28;20050;-89
2023/05/13 02:37:20;;;;;;;0.20;0.20;;;13.60;99.90;;;;;;5095661;28;20032;-89
2023/05/13 02:39:46;;;;;;;0.20;0.20;;;13.80;99.90;;;;;;5094363;28;20028;-89
2023/05/13 02:42:11;;;;;;;0.08;0.08;;;13.70;99.90;;;;;;5094103;28;20028;-89
2023/05/13 02:44:37;;;;;;;0.10;0.10;;;13.90;99.90;;;;;;5094794;28;20058;-89
2023/05/13 02:47:02;;;;;;;0.47;0.40;;;13.90;99.90;;;;;;5094404;28;20396;-88
2023/05/13 02:49:28;;;;;;;0.15;0.15;;;13.90;99.90;;;;;;5094127;28;20027;-88
2023/05/13 02:51:54;;;;;;;0.10;0.10;;;13.90;99.90;;;;;;5094210;28;20042;-88
2023/05/13 02:54:19;;;;;;;0.10;0.10;;;13.80;99.90;;;;;;5093912;28;20565;-89
2023/05/13 02:56:45;;;;;;;0.20;0.20;;;13.70;99.90;;;;;;5094082;28;20071;-89
2023/05/13 02:59:10;;;;;;;0.10;0.10;;;13.70;99.90;;;;;;5095114;28;20024;-89
2023/05/13 03:01:36;;;;;;;1.85;0.40;;;13.80;99.90;;;;;;5095176;28;20077;-89
2023/05/13 03:04:02;;;;;;;0.00;0.00;;;13.90;99.90;;;;;;5093734;28;20032;-89
2023/05/13 03:06:27;;;;;;;0.03;0.03;;;13.80;99.90;;;;;;5095051;28;20027;-88
2023/05/13 03:08:53;;;;;;;0.10;0.10;;;13.80;99.90;;;;;;5094821;28;20035;-89
2023/05/13 03:11:18;;;;;;;0.00;0.00;;;13.90;99.90;;;;;;5093556;28;20476;-89
2023/05/13 03:13:44;;;;;;;0.10;0.10;;;13.90;99.90;;;;;;5093646;28;20036;-89
2023/05/13 03:16:10;;;;;;;0.10;0.10;;;13.80;99.90;;;;;;5094757;28;20103;-90
2023/05/13 03:18:35;;;;;;;0.00;0.00;;;13.80;99.90;;;;;;5094537;28;20032;-89
2023/05/13 03:21:01;;;;;;;0.10;0.10;;;13.70;99.90;;;;;;5093603;28;20024;-89
2023/05/13 03:23:27;;;;;;;0.20;0.20;;;13.60;99.90;;;;;;5095074;28;20619;-89
2023/05/13 03:25:53;;;;;;;0.00;0.00;;;13.50;99.90;;;;;;5092879;28;20021;-88
2023/05/13 03:28:18;;;;;;;0.00;0.00;;;13.60;99.90;;;;;;5093743;28;20466;-89
2023/05/13 03:30:44;;;;;;;2.08;0.38;;;13.70;99.90;;;;;;5094424;28;20487;-89
2023/05/13 03:33:10;;;;;;;0.08;0.08;;;13.70;99.90;;;;;;5094209;28;20089;-89
2023/05/13 03:35:35;;;;;;;0.30;0.30;;;13.70;99.90;;;;;;5093319;28;20503;-89
2023/05/13 03:38:01;;;;;;;0.10;0.10;;;13.60;99.90;;;;;;5093162;28;20067;-88
2023/05/13 03:40:26;;;;;;;0.10;0.10;;;13.70;99.90;;;;;;5092545;28;20075;-89
2023/05/13 03:42:52;;;;;;;0.10;0.10;;;13.90;99.90;;;;;;5092806;28;20028;-89
2023/05/13 03:45:18;;;;;;;0.10;0.10;;;14.00;99.90;;;;;;5093178;28;20024;-89
2023/05/13 03:47:43;;;;;;;0.10;0.10;;;13.80;99.90;;;;;;5094433;28;20399;-89
2023/05/13 03:50:09;;;;;;;0.10;0.10;;;13.80;99.90;;;;;;5094330;28;20107;-88
2023/05/13 03:52:35;;;;;;;0.25;0.25;;;13.80;99.90;;;;;;5092823;28;20102;-88
2023/05/13 03:55:00;;;;;;;0.10;0.10;;;13.90;99.90;;;;;;5092369;28;20035;-89
2023/05/13 03:57:26;;;;;;;0.10;0.10;;;13.90;99.90;;;;;;5093419;28;20108;-88
2023/05/13 03:59:51;;;;;;;0.00;0.00;;;13.80;99.90;;;;;;5092864;28;20028;-88
2023/05/13 04:02:17;;;;;;;0.10;0.10;;;13.60;99.90;;;;;;5093811;28;20112;-89
2023/05/13 04:04:43;;;;;;;0.00;0.00;;;13.70;99.90;;;;;;5094222;28;20488;-88
2023/05/13 04:07:09;;;;;;;0.13;0.13;;;13.70;99.90;;;;;;5093672;28;20047;-89
2023/05/13 04:09:34;;;;;;;0.15;0.15;;;13.60;99.90;;;;;;5092499;28;20047;-88
2023/05/13 04:12:00;;;;;;;0.38;0.20;;;13.60;99.90;;;;;;5093548;28;20058;-89
2023/05/13 04:14:26;;;;;;;0.10;0.10;;;13.70;99.90;;;;;;5093616;28;20031;-89
2023/05/13 04:16:51;;;;;;;0.10;0.10;;;13.80;99.90;;;;;;5093741;28;20021;-89
2023/05/13 04:19:17;;;;;;;1.15;1.05;;;13.70;99.90;;;;;;5093689;28;20080;-89
2023/05/13 04:21:43;;;;;;;0.10;0.10;;;13.60;99.90;;;;;;5093559;28;20107;-89
2023/05/13 04:24:08;;;;;;;0.10;0.10;;;13.50;99.90;;;;;;5093331;28;20040;-88
2023/05/13 04:26:34;;;;;;;0.30;0.30;;;13.50;99.90;;;;;;5092114;28;20019;-89
2023/05/13 04:28:59;;;;;;;0.17;0.13;;;13.40;99.90;;;;;;5092517;28;20040;-89
2023/05/13 04:31:25;;;;;;;0.30;0.30;;;13.60;99.90;;;;;;5092464;28;20073;-88
2023/05/13 04:33:51;;;;;;;0.03;0.03;;;13.70;99.90;;;;;;5093275;28;20034;-89
2023/05/13 04:36:16;;;;;;;0.00;0.00;;;13.60;99.90;;;;;;5092687;28;20480;-89
2023/05/13 04:38:42;;;;;;;0.17;0.17;;;13.70;99.90;;;;;;5091838;28;20468;-88
2023/05/13 04:41:07;;;;;;;0.32;0.32;;;13.60;99.90;;;;;;5093409;28;20032;-88
2023/05/13 04:43:33;;;;;;;1.75;0.30;;;13.70;99.90;;;;;;5091912;28;20024;-89
2023/05/13 04:45:59;;;;;;;0.10;0.10;;;13.60;99.90;;;;;;5091972;28;20468;-89
2023/05/13 04:48:26;;;;;;;0.20;0.20;;;13.60;99.90;;;;;;5093726;28;20119;-89
2023/05/13 04:50:52;;;;;;;0.08;0.08;;;13.60;99.90;;;;;;5093517;28;20056;-89
2023/05/13 04:53:18;;;;;;;0.08;0.08;;;13.70;99.90;;;;;;5091289;28;20056;-89
2023/05/13 04:55:47;;;;;;;0.10;0.10;;;13.50;99.90;;;;;;5092366;28;20107;-89
2023/05/13 04:58:12;;;;;;;0.32;0.32;;;13.50;99.90;;;;;;5092012;28;20435;-89
2023/05/13 05:00:38;;;;;;;0.10;0.10;;;13.60;99.90;;;;;;5092110;28;20028;-89
2023/05/13 05:03:03;;;;;;;0.03;0.03;;;13.60;99.90;;;;;;5092905;28;20031;-89
2023/05/13 05:05:29;;;;;;;0.03;0.03;;;13.80;99.90;;;;;;5093318;28;20055;-88
2023/05/13 05:07:55;;;;;;;0.03;0.03;;;13.80;99.90;;;;;;5092730;28;20032;-89
2023/05/13 05:10:20;;;;;;;0.75;0.22;;;13.90;99.90;;;;;;5093181;28;20020;-89
2023/05/13 05:12:46;;;;;;;0.00;0.00;;;13.90;99.90;;;;;;5093375;28;20035;-89
2023/05/13 05:15:14;;;;;;;0.15;0.15;;;13.80;99.90;;;;;;5092769;28;20032;-89
2023/05/13 05:17:44;;;;;;;0.10;0.10;;;13.60;99.90;;;;;;5093632;28;20111;-93
2023/05/13 05:20:10;;;;;;;0.00;0.00;;;13.60;99.90;;;;;;5091994;28;20044;-84
2023/05/13 05:22:37;;;;;;;0.20;0.10;;;13.80;99.90;;;;;;5090662;28;20028;-84
2023/05/13 05:25:03;;;;;;;0.30;0.30;;;13.90;99.90;;;;;;5092280;28;20028;-86
2023/05/13 05:27:28;;;;;;;0.17;0.17;;;13.90;99.90;;;;;;5092359;28;20016;-86
2023/05/13 05:29:54;;;;;;;0.00;0.00;;;14.00;99.90;;;;;;5094180;28;20032;-85
2023/05/13 05:32:20;;;;;;;0.10;0.10;;;14.00;99.90;;;;;;5095135;28;20088;-86
2023/05/13 05:34:46;;;;;;;0.00;0.00;;;14.00;99.90;;;;;;5091029;28;20100;-84
2023/05/13 05:37:11;;;;;;;0.22;0.13;;;13.90;99.90;;;;;;5091444;28;20039;-84
2023/05/13 05:39:37;;;;;;;0.20;0.20;;;13.80;99.90;;;;;;5091773;28;20028;-84
2023/05/13 05:42:03;;;;;;;0.10;0.10;;;13.80;99.90;;;;;;5090516;28;20024;-84
2023/05/13 05:44:28;;;;;;;0.15;0.15;;;13.80;99.90;;;;;;5092435;28;20086;-84
2023/05/13 05:46:54;;;;;;;0.08;0.08;;;13.90;99.90;;;;;;5091641;28;20081;-84
2023/05/13 05:49:20;;;;;;;0.22;0.22;;;13.80;99.90;;;;;;5091736;28;20070;-84
2023/05/13 05:51:45;;;;;;;0.10;0.10;;;13.70;99.90;;;;;;5091209;28;20020;-84
2023/05/13 05:54:11;;;;;;;0.10;0.10;;;13.60;99.90;;;;;;5091863;28;20032;-84
2023/05/13 05:56:36;;;;;;;1.13;0.30;;;13.70;99.90;;;;;;5092650;28;20065;-84
2023/05/13 05:59:02;;;;;;;0.10;0.10;;;13.80;99.90;;;;;;5091695;28;20047;-84
2023/05/13 06:01:35;;;;;;;0.00;0.00;;;13.80;99.90;;;;;;5091708;28;20027;-84
2023/05/13 06:04:04;;;;;;;0.77;0.20;;;13.90;99.90;;;;;;5093585;28;20020;-84
2023/05/13 06:06:29;;;;;;;0.10;0.10;;;13.90;99.90;;;;;;5094381;28;20024;-84
2023/05/13 06:08:55;;;;;;;0.43;0.22;;;13.90;99.90;;;;;;5095723;28;20468;-85
2023/05/13 06:11:20;;;;;;;0.10;0.10;;;13.90;99.90;;;;;;5095066;28;20383;-84
2023/05/13 06:13:46;;;;;;;0.20;0.20;;;13.80;99.90;;;;;;5094897;28;20008;-84
2023/05/13 06:16:12;;;;;;;0.10;0.10;;;13.90;99.90;;;;;;5095170;28;20149;-85
2023/05/13 06:18:37;;;;;;;0.63;0.63;;;13.90;99.90;;;;;;5094884;28;20024;-83
2023/05/13 06:21:03;;;;;;;0.10;0.10;;;14.00;99.90;;;;;;5094951;28;20056;-84
2023/05/13 06:23:29;;;;;;;0.10;0.10;;;13.90;99.90;;;;;;5094802;28;20387;-85
2023/05/13 06:25:55;;;;;;;0.55;0.20;;;14.00;99.90;;;;;;5094889;28;20099;-84
2023/05/13 06:28:21;;;;;;;0.10;0.10;;;13.90;99.90;;;;;;5095127;28;20064;-84
2023/05/13 06:30:47;;;;;;;0.10;0.10;;;13.90;99.90;;;;;;5094773;28;20055;-84
2023/05/13 06:33:12;;;;;;;0.30;0.30;;;13.80;99.90;;;;;;5094579;28;20063;-84
2023/05/13 06:35:38;;;;;;;0.10;0.10;;;13.90;99.90;;;;;;5094271;28;20024;-84
2023/05/13 06:38:04;;;;;;;0.00;0.00;;;13.90;99.90;;;;;;5094520;28;20126;-84
2023/05/13 06:40:29;;;;;;;0.13;0.13;;;13.80;99.90;;;;;;5094450;28;20020;-85
2023/05/13 06:42:55;;;;;;;0.32;0.32;;;13.80;99.90;;;;;;5094787;28;20426;-84
2023/05/13 06:45:22;;;;;;;0.10;0.10;;;13.90;99.90;;;;;;5094609;28;20518;-84
2023/05/13 06:47:52;;;;;;;0.03;0.03;;;13.80;99.90;;;;;;5094256;28;20039;-84
2023/05/13 06:50:18;;;;;;;0.05;0.05;;;13.70;99.90;;;;;;5093878;28;20505;-84
2023/05/13 06:52:44;;;;;;;0.10;0.10;;;13.70;99.90;;;;;;5127136;27;20024;-84
2023/05/13 06:55:10;;;;;;;1.02;0.20;;;13.60;99.90;;;;;;5094133;28;20035;-85
2023/05/13 06:57:36;;;;;;;0.10;0.10;;;13.70;99.90;;;;;;5094395;28;20070;-84
2023/05/13 07:00:02;;;;;;;0.20;0.20;;;13.70;99.90;;;;;;5094131;28;20027;-84
2023/05/13 07:02:28;;;;;;;0.03;0.03;;;13.70;99.90;;;;;;5093845;28;20020;-84
2023/05/13 07:04:53;;;;;;;0.20;0.20;;;13.70;99.90;;;;;;5092910;28;20049;-84
2023/05/13 07:07:19;;;;;;;0.10;0.10;;;13.70;99.90;;;;;;5093506;28;20055;-84
2023/05/13 07:09:45;;;;;;;0.10;0.10;;;13.80;99.90;;;;;;5094362;28;20020;-85
2023/05/13 07:12:11;;;;;;;0.10;0.10;;;13.80;99.90;;;;;;5126763;27;20084;-84
2023/05/13 07:14:36;;;;;;;0.10;0.10;;;13.80;99.90;;;;;;5093035;28;20488;-84
2023/05/13 07:17:03;;;;;;;0.08;0.08;;;13.90;99.90;;;;;;5093664;28;20130;-84
2023/05/13 07:19:28;;;;;;;0.00;0.00;;;13.90;99.90;;;;;;5093409;28;20052;-84
2023/05/13 07:21:54;;;;;;;0.30;0.30;;;14.00;99.90;;;;;;5094175;28;20039;-84
2023/05/13 07:24:19;;;;;;;0.00;0.00;;;13.90;99.90;;;;;;5094126;28;20054;-84
2023/05/13 07:26:45;;;;;;;0.20;0.20;;;14.00;99.90;;;;;;5093759;28;20426;-84
2023/05/13 07:29:12;;;;;;;1.10;0.43;;;13.90;99.90;;;;;;5093677;28;20048;-84
2023/05/13 07:31:37;;;;;;;1.10;0.55;;;14.00;99.90;;;;;;5094125;28;20473;-84
2023/05/13 07:34:03;;;;;;;0.00;0.00;;;14.10;99.90;;;;;;5093421;28;20024;-84
2023/05/13 07:36:29;;;;;;;0.28;0.20;;;14.00;99.90;;;;;;5093792;28;20173;-83
2023/05/13 07:38:54;;;;;;;0.00;0.00;;;14.00;99.90;;;;;;5093612;28;20024;-84
2023/05/13 07:41:20;;;;;;;0.15;0.15;;;13.90;99.90;;;;;;5093800;28;20107;-84
2023/05/13 07:43:46;;;;;;;0.13;0.13;;;13.80;99.90;;;;;;5093314;28;20044;-84
2023/05/13 07:46:12;;;;;;;0.10;0.10;;;13.70;99.90;;;;;;5093218;28;20077;-84
2023/05/13 07:48:37;;;;;;;0.20;0.20;;;13.90;99.90;;;;;;5091603;28;20093;-84
2023/05/13 07:51:04;;;;;;;0.10;0.10;;;13.90;99.90;;;;;;5093769;28;20068;-84
2023/05/13 07:53:29;;;;;;;0.08;0.08;;;14.00;99.90;;;;;;5093263;28;20032;-85
2023/05/13 07:55:55;;;;;;;0.00;0.00;;;13.90;99.90;;;;;;5093338;28;20024;-84
2023/05/13 07:58:21;;;;;;;0.00;0.00;;;14.00;99.90;;;;;;5092885;28;20032;-84
2023/05/13 08:00:48;;;;;;;0.90;0.20;;;14.00;99.90;;;;;;5093732;28;20032;-84
2023/05/13 08:03:15;;;;;;;0.47;0.40;;;14.00;99.90;;;;;;5092506;28;20024;-84
2023/05/13 08:05:40;;;;;;;0.10;0.10;;;13.90;99.90;;;;;;5092944;28;20441;-84
2023/05/13 08:08:06;;;;;;;0.40;0.40;;;13.90;99.90;;;;;;5093274;28;20032;-84
2023/05/13 08:10:31;;;;;;;0.00;0.00;;;13.90;99.90;;;;;;5092778;28;20494;-84
2023/05/13 08:12:57;;;;;;;0.20;0.20;;;13.90;99.90;;;;;;5093048;28;20077;-84
2023/05/13 08:15:23;;;;;;;0.20;0.10;;;13.90;99.90;;;;;;5093254;28;20518;-84
2023/05/13 08:17:49;;;;;;;0.10;0.10;;;13.90;99.90;;;;;;5092936;28;20027;-84
2023/05/13 08:20:15;;;;;;;0.10;0.10;;;14.10;99.90;;;;;;5092445;28;20048;-84
2023/05/13 08:22:41;;;;;;;0.10;0.10;;;14.20;99.90;;;;;;5093162;28;20036;-84
2023/05/13 08:25:07;;;;;;;0.10;0.10;;;14.20;99.90;;;;;;5092897;28;20021;-84
2023/05/13 08:27:34;;;;;;;0.30;0.30;;;14.20;99.90;;;;;;5092146;28;20111;-84
2023/05/13 08:29:59;;;;;;;0.00;0.00;;;14.10;99.90;;;;;;5092617;28;20031;-84
2023/05/13 08:32:25;;;;;;;0.10;0.10;;;14.10;99.90;;;;;;5092621;28;20024;-84
2023/05/13 08:34:50;;;;;;;0.10;0.10;;;14.20;99.90;;;;;;5092808;28;20024;-84
2023/05/13 08:37:16;;;;;;;0.10;0.10;;;14.10;99.90;;;;;;5091270;28;20392;-84
2023/05/13 08:39:42;;;;;;;0.90;0.20;;;14.20;99.90;;;;;;5092696;28;20016;-84
2023/05/13 08:42:09;;;;;;;0.25;0.25;;;14.40;99.90;;;;;;5092412;28;20086;-84
2023/05/13 08:44:38;;;;;;;0.00;0.00;;;14.50;99.90;;;;;;5092293;28;20012;-83
2023/05/13 08:47:30;;;;;;;0.00;0.00;;;14.50;99.90;;;;;;5092188;28;20102;-84
2023/05/13 08:49:56;;;;;;;0.08;0.08;;;14.40;99.90;;;;;;5092909;28;20059;-84
2023/05/13 08:52:22;;;;;;;0.00;0.00;;;14.70;99.90;;;;;;5092598;28;20016;-84
2023/05/13 08:54:48;;;;;;;0.55;0.55;;;14.60;99.90;;;;;;5092684;28;20028;-84
2023/05/13 08:57:15;;;;;;;0.20;0.20;;;14.50;99.90;;;;;;5092329;28;20523;-84
2023/05/13 08:59:40;;;;;;;0.25;0.25;;;14.60;99.90;;;;;;5091717;28;20034;-84
2023/05/13 09:02:08;;;;;;;0.05;0.05;;;14.70;99.90;;;;;;5092098;28;20107;-84
2023/05/13 09:04:36;;;;;;;0.00;0.00;;;14.80;99.90;;;;;;5092170;28;20021;-84
2023/05/13 09:07:06;;;;;;;0.00;0.00;;;14.90;99.90;;;;;;5092205;28;20028;-87
2023/05/13 09:09:32;;;;;;;0.10;0.10;;;14.80;99.90;;;;;;5093077;28;20035;-84
2023/05/13 09:11:58;;;;;;;0.10;0.10;;;14.90;99.90;;;;;;5092119;28;20020;-84
2023/05/13 09:14:30;;;;;;;0.20;0.20;;;14.90;99.90;;;;;;5092448;28;20407;-85
2023/05/13 09:16:56;;;;;;;0.22;0.22;;;15.00;99.90;;;;;;5092505;28;20093;-85
2023/05/13 09:19:23;;;;;;;0.10;0.10;;;14.90;99.90;;;;;;5092708;28;20048;-83
2023/05/13 09:21:49;;;;;;;0.00;0.00;;;15.00;99.90;;;;;;5092762;28;20141;-84
2023/05/13 09:24:20;;;;;;;0.10;0.10;;;15.20;99.90;;;;;;5092204;28;20065;-84
2023/05/13 09:26:47;;;;;;;0.00;0.00;;;15.30;99.90;;;;;;5092330;28;20143;-84
2023/05/13 09:29:16;;;;;;;0.08;0.08;;;15.20;99.90;;;;;;5091449;28;20085;-84
2023/05/13 09:31:47;;;;;;;0.00;0.00;;;15.10;99.90;;;;;;5091943;28;20020;-84
2023/05/13 09:34:13;;;;;;;0.17;0.17;;;15.10;99.90;;;;;;5092693;28;20465;-84
2023/05/13 09:36:40;;;;;;;0.45;0.30;;;15.10;99.90;;;;;;5092307;28;20055;-84
2023/05/13 09:39:06;;;;;;;0.10;0.10;;;15.00;99.90;;;;;;5094407;28;20016;-84
2023/05/13 09:41:33;;;;;;;0.00;0.00;;;15.10;99.90;;;;;;5096112;28;20438;-83
2023/05/13 09:44:01;;;;;;;0.00;0.00;;;15.20;99.90;;;;;;5095178;28;20028;-84
2023/05/13 09:46:27;;;;;;;0.30;0.30;;;15.30;99.90;;;;;;5095866;28;20754;-84
2023/05/13 09:48:56;;;;;;;0.00;0.00;;;15.50;99.90;;;;;;5096063;28;20173;-84
2023/05/13 09:51:30;;;;;;;0.15;0.15;;;15.60;99.90;;;;;;5095746;28;20368;-84
2023/05/13 09:54:06;;;;;;;0.55;0.55;;;15.50;99.90;;;;;;5094031;28;20496;-84
2023/05/13 09:56:34;;;;;;;0.20;0.20;;;15.40;99.90;;;;;;5095459;28;20029;-84
2023/05/13 09:59:01;;;;;;;0.57;0.57;;;15.40;99.90;;;;;;5095778;28;20051;-84
2023/05/13 10:01:27;;;;;;;0.30;0.30;;;15.60;99.90;;;;;;5095357;28;20028;-84
2023/05/13 10:03:58;;;;;;;0.10;0.10;;;15.60;99.90;;;;;;5094286;28;20032;-84
2023/05/13 10:06:29;;;;;;;0.20;0.20;;;15.80;99.90;;;;;;5095232;28;20035;-84
2023/05/13 10:08:57;;;;;;;0.22;0.22;;;15.90;99.90;;;;;;5095602;28;20435;-84
2023/05/13 10:11:24;;;;;;;0.10;0.10;;;15.90;99.90;;;;;;5095939;28;20535;-84
2023/05/13 10:13:59;;;;;;;0.10;0.10;;;15.90;99.90;;;;;;5094825;28;20031;-84
2023/05/13 10:16:26;;;;;;;0.15;0.15;;;16.20;99.90;;;;;;5095479;28;20055;-84
2023/05/13 10:18:52;;;;;;;0.38;0.35;;;16.10;99.90;;;;;;5095445;28;20020;-83
2023/05/13 10:21:18;;;;;;;0.20;0.20;;;16.20;99.90;;;;;;5095289;28;20119;-84
2023/05/13 10:23:50;;;;;;;0.45;0.45;;;16.00;99.90;;;;;;5095134;28;20024;-84
2023/05/13 10:26:16;;;;;;;0.40;0.40;;;16.10;99.90;;;;;;5094965;28;20028;-83
2023/05/13 10:28:42;;;;;;;0.38;0.38;;;16.10;99.90;;;;;;5094853;28;20032;-84
2023/05/13 10:31:08;;;;;;;0.30;0.30;;;16.10;99.90;;;;;;5095404;28;20028;-84
2023/05/13 10:33:34;;;;;;;0.00;0.00;;;16.10;99.90;;;;;;5094705;28;20071;-84
2023/05/13 10:35:59;;;;;;;0.10;0.10;;;16.10;99.90;;;;;;5094930;28;20024;-84
2023/05/13 10:38:33;;;;;;;0.20;0.20;;;16.30;99.90;;;;;;5094759;28;20077;-84
2023/05/13 10:41:07;;;;;;;0.03;0.03;;;16.30;99.90;;;;;;5094463;28;20491;-84
2023/05/13 10:43:33;;;;;;;0.00;0.00;;;16.30;99.90;;;;;;5094756;28;20484;-84
2023/05/13 10:46:01;;;;;;;1.85;0.52;;;16.60;99.90;;;;;;5095454;28;20502;-84
2023/05/13 10:48:39;;;;;;;0.20;0.20;;;16.80;99.90;;;;;;5094583;28;20184;-84
2023/05/13 10:51:08;;;;;;;0.30;0.20;;;16.60;99.90;;;;;;5093511;28;20031;-84
2023/05/13 10:53:46;;;;;;;0.20;0.20;;;16.60;99.90;;;;;;5093206;28;20024;-84
2023/05/13 10:56:12;;;;;;;0.30;0.30;;;16.80;99.90;;;;;;5094128;28;20024;-84
2023/05/13 10:58:38;;;;;;;0.13;0.10;;;17.10;99.90;;;;;;5094462;28;20097;-84
2023/05/13 11:01:25;;;;;;;0.13;0.13;;;17.40;99.90;;;;;;5094034;28;20467;-84
2023/05/13 11:03:54;;;;;;;1.00;0.50;;;17.40;99.90;;;;;;5094425;28;20046;-84
2023/05/13 11:06:27;;;;;;;0.10;0.10;;;17.40;99.90;;;;;;5094371;28;20484;-83
2023/05/13 11:08:53;;;;;;;0.05;0.05;;;17.50;99.90;;;;;;5093941;28;20031;-84
2023/05/13 11:11:27;;;;;;;1.65;0.30;;;17.80;99.90;;;;;;5093910;28;20392;-84
2023/05/13 11:14:07;;;;;;;0.10;0.10;;;17.90;99.90;;;;;;5094359;28;20541;-84
2023/05/13 11:16:34;;;;;;;0.20;0.20;;;17.90;99.90;;;;;;5093867;28;20102;-84
2023/05/13 11:19:08;;;;;;;0.10;0.10;;;17.80;99.90;;;;;;5093745;28;20044;-84
2023/05/13 11:21:40;;;;;;;0.20;0.20;;;18.00;99.90;;;;;;5094182;28;20039;-84
2023/05/13 11:24:06;;;;;;;1.98;0.50;;;18.20;99.90;;;;;;5094062;28;20035;-84
2023/05/13 11:26:55;;;;;;;0.20;0.10;;;18.50;99.90;;;;;;5093275;28;20184;-84
2023/05/13 11:29:33;;;;;;;0.10;0.10;;;19.00;99.90;;;;;;5094112;28;20032;-84
2023/05/13 11:32:01;;;;;;;0.20;0.20;;;19.20;99.90;;;;;;5092271;28;20028;-84
2023/05/13 11:34:27;;;;;;;0.20;0.20;;;19.60;99.90;;;;;;5093647;28;20013;-84
2023/05/13 11:37:07;;;;;;;0.40;0.40;;;19.90;99.90;;;;;;5093464;28;20028;-84
2023/05/13 11:39:33;;;;;;;0.20;0.20;;;19.80;99.90;;;;;;5092938;28;20020;-84
2023/05/13 11:42:03;;;;;;;0.73;0.47;;;20.30;99.90;;;;;;5093591;28;20052;-84
2023/05/13 11:44:29;;;;;;;0.13;0.13;;;20.30;99.90;;;;;;5093826;28;20039;-84
2023/05/13 11:47:00;;;;;;;0.35;0.15;;;20.40;99.90;;;;;;5093643;28;20028;-84
2023/05/13 11:49:37;;;;;;;0.08;0.08;;;20.20;99.90;;;;;;5093787;28;20031;-84
2023/05/13 11:52:04;;;;;;;0.10;0.10;;;20.20;99.90;;;;;;5093369;28;20039;-84
2023/05/13 11:54:30;;;;;;;0.00;0.00;;;20.00;99.90;;;;;;5092949;28;20035;-84
2023/05/13 11:56:55;;;;;;;0.50;0.50;;;20.40;99.90;;;;;;5093284;28;20365;-84
2023/05/13 11:59:21;;;;;;;0.28;0.20;;;20.50;99.90;;;;;;5093318;28;20438;-84
2023/05/13 12:02:01;;;;;;;0.28;0.28;;;20.10;99.90;;;;;;5092888;28;20129;-84
2023/05/13 12:04:28;;;;;;;0.10;0.10;;;19.90;99.90;;;;;;5092973;28;20044;-84
2023/05/13 12:06:54;;;;;;;0.10;0.10;;;20.30;99.90;;;;;;5093376;28;20024;-84
2023/05/13 12:09:23;;;;;;;0.00;0.00;;;21.30;99.90;;;;;;5093343;28;20097;-84
2023/05/13 12:11:52;;;;;;;0.30;0.15;;;22.10;99.90;;;;;;5092360;28;20036;-83
2023/05/13 12:14:19;;;;;;;0.28;0.25;;;22.60;99.90;;;;;;5093181;28;20020;-83
2023/05/13 12:16:45;;;;;;;0.35;0.28;;;22.60;99.90;;;;;;5092792;28;20107;-83
2023/05/13 12:19:11;;;;;;;0.00;0.00;;;22.70;99.90;;;;;;5092622;28;20175;-84
2023/05/13 12:21:37;;;;;;;0.28;0.10;;;22.70;99.90;;;;;;5092903;28;20065;-84
2023/05/13 12:24:16;;;;;;;0.32;0.32;;;22.90;99.90;;;;;;5092242;28;20455;-84
2023/05/13 12:26:42;;;;;;;0.00;0.00;;;23.10;99.90;;;;;;5092517;28;20107;-83
2023/05/13 12:29:08;;;;;;;0.60;0.60;;;23.00;99.90;;;;;;5092630;28;20111;-83
2023/05/13 12:31:33;;;;;;;0.20;0.20;;;22.20;99.90;;;;;;5092550;28;20024;-84
2023/05/13 12:33:59;;;;;;;0.10;0.10;;;22.00;99.90;;;;;;5092601;28;20028;-84
2023/05/13 12:36:32;;;;;;;0.40;0.38;;;22.50;99.90;;;;;;5092966;28;20476;-84
2023/05/13 12:39:19;;;;;;;0.10;0.10;;;23.00;99.90;;;;;;5092182;28;20031;-84
2023/05/13 12:41:52;;;;;;;0.00;0.00;;;22.60;99.90;;;;;;5092469;28;20396;-84
2023/05/13 12:44:17;;;;;;;0.43;0.25;;;22.70;99.90;;;;;;5092554;28;20054;-84
2023/05/13 12:46:56;;;;;;;0.00;0.00;;;22.60;99.90;;;;;;5092189;28;20372;-84
2023/05/13 12:49:22;;;;;;;0.00;0.00;;;22.90;99.90;;;;;;5092735;28;20028;-84